Time;durP1;ratioP1;P1;durP2;ratioP2;P2;SDS_P1;SDS_P2;PMS_P1;PMS_P2;Temp;Humidity;BMP_temperature;BMP_pressure;BME280_temperature;BME280_humidity;BME280_pressure;Samples;Min_cycle;Max_cycle;Signal;HPM_P1;HPM_P2
2022/05/11 00:00:23;;;;;;;;;;;;;;;22.19;89.66;98008.06;4953565;28;19930;-84
2022/05/11 00:02:50;;;;;;;;;;;;;;;22.19;89.50;98007.31;4956377;28;19933;-84
2022/05/11 00:05:16;;;;;;;;;;;;;;;22.11;90.33;98000.00;4963264;28;19926;-84
2022/05/11 00:07:42;;;;;;;;;;;;;;;22.04;90.54;97997.84;4951622;28;19927;-86
2022/05/11 00:10:12;;;;;;;;;;;;;;;22.09;90.19;97999.56;4942389;28;19970;-85
2022/05/11 00:12:40;;;;;;;;;;;;;;;22.12;90.09;97994.25;4962827;28;19933;-84
2022/05/11 00:15:07;;;;;;;;;;;;;;;22.04;90.94;97990.47;4944729;28;19927;-83
2022/05/11 00:17:33;;;;;;;;;;;;;;;22.02;90.84;97992.75;4945815;28;19932;-85
2022/05/11 00:19:59;;;;;;;;;;;;;;;21.91;91.45;97990.78;4960597;28;19930;-86
2022/05/11 00:22:26;;;;;;;;;;;;;;;21.96;91.03;97990.56;4940684;28;19931;-84
2022/05/11 00:24:52;;;;;;;;;;;;;;;22.02;91.15;97983.78;4934363;28;20083;-83
2022/05/11 00:27:18;;;;;;;;;;;;;;;21.90;91.99;97983.75;4953060;28;19938;-84
2022/05/11 00:29:47;;;;;;;;;;;;;;;21.54;94.74;97987.84;4936052;28;19926;-84
2022/05/11 00:32:13;;;;;;;;;;;;;;;21.42;96.31;97976.13;4936299;28;19927;-84
2022/05/11 00:34:39;;;;;;;;;;;;;;;21.53;95.33;97980.06;4939634;28;19948;-84
2022/05/11 00:37:06;;;;;;;;;;;;;;;21.68;94.10;97975.91;4962171;28;19950;-84
2022/05/11 00:39:34;;;;;;;;;;;;;;;21.76;93.37;97981.28;4955083;28;20295;-83
2022/05/11 00:42:01;;;;;;;;;;;;;;;21.70;93.68;97970.94;4947406;28;20310;-85
2022/05/11 00:44:27;;;;;;;;;;;;;;;21.84;93.30;97976.91;4943047;29;19949;-83
2022/05/11 00:46:58;;;;;;;;;;;;;;;21.90;92.50;97959.28;4949633;28;20007;-85
2022/05/11 00:49:35;;;;;;;;;;;;;;;21.90;92.45;97970.16;4954337;28;19930;-84
2022/05/11 00:52:04;;;;;;;;;;;;;;;21.80;93.13;97967.81;4937279;28;19936;-84
2022/05/11 00:54:33;;;;;;;;;;;;;;;21.64;93.70;97964.91;4952407;28;20422;-83
2022/05/11 00:57:01;;;;;;;;;;;;;;;21.60;94.50;97965.94;4958053;28;20177;-84
2022/05/11 00:59:30;;;;;;;;;;;;;;;21.54;95.28;97966.13;4958930;28;19933;-84
2022/05/11 01:02:03;;;;;;;;;;;;;;;21.11;98.55;97965.66;4948400;28;19952;-84
2022/05/11 01:04:30;;;;;;;;;;;;;;;21.30;97.18;97960.56;4961003;28;20021;-84
2022/05/11 01:06:57;;;;;;;;;;;;;;;21.46;95.77;97956.13;5036192;28;19934;-83
2022/05/11 01:09:23;;;;;;;;;;;;;;;21.58;94.86;97960.00;4945474;28;20047;-84
2022/05/11 01:11:51;;;;;;;;;;;;;;;21.65;94.14;97957.56;4957255;28;20439;-84
2022/05/11 01:14:20;;;;;;;;;;;;;;;21.68;93.77;97954.19;4936900;28;20493;-85
2022/05/11 01:16:48;;;;;;;;;;;;;;;21.72;93.39;97968.69;4929321;28;20061;-84
2022/05/11 01:19:19;;;;;;;;;;;;;;;21.74;92.88;97955.56;4950774;28;19942;-84
2022/05/11 01:21:47;;;;;;;;;;;;;;;21.73;92.78;97957.47;4952318;28;19926;-86
2022/05/11 01:24:29;;;;;;;;;;;;;;;21.56;94.33;97965.00;4931562;28;19937;-84
2022/05/11 01:26:56;;;;;;;;;;;;;;;21.43;94.79;97951.34;4953308;28;19965;-84
2022/05/11 01:29:22;;;;;;;;;;;;;;;21.41;95.03;97958.25;4954635;28;20101;-84
2022/05/11 01:31:49;;;;;;;;;;;;;;;21.46;94.69;97958.03;4943129;28;19930;-85
2022/05/11 01:34:18;;;;;;;;;;;;;;;21.39;95.50;97947.69;4955273;28;19940;-83
2022/05/11 01:36:47;;;;;;;;;;;;;;;21.30;96.39;97946.19;4956587;28;19977;-84
2022/05/11 01:39:13;;;;;;;;;;;;;;;21.03;98.18;97955.63;4950140;28;19941;-84
2022/05/11 01:41:42;;;;;;;;;;;;;;;20.74;100.00;97952.91;4957943;28;19949;-86
2022/05/11 01:44:09;;;;;;;;;;;;;;;20.86;100.00;97953.00;4930393;28;19931;-85
2022/05/11 01:46:36;;;;;;;;;;;;;;;20.89;99.90;97949.63;4949825;28;19930;-84
2022/05/11 01:49:02;;;;;;;;;;;;;;;21.03;98.60;97947.47;4927794;28;19937;-83
2022/05/11 01:51:29;;;;;;;;;;;;;;;20.64;100.00;97948.63;4933318;28;19927;-84
2022/05/11 01:53:56;;;;;;;;;;;;;;;20.73;100.00;97954.84;4927953;28;20021;-84
2022/05/11 01:56:24;;;;;;;;;;;;;;;20.32;100.00;97960.94;4948496;28;19926;-85
2022/05/11 01:58:52;;;;;;;;;;;;;;;19.86;100.00;97953.53;4948520;28;19971;-84
2022/05/11 02:01:20;;;;;;;;;;;;;;;20.38;100.00;97947.97;4948047;28;20066;-83
2022/05/11 02:03:46;;;;;;;;;;;;;;;20.04;100.00;97940.72;4952902;28;20389;-86
2022/05/11 02:08:57;;;;;;;;;;;;;;;20.02;100.00;97940.28;4936700;28;20321;-83
2022/05/11 02:11:23;;;;;;;;;;;;;;;19.60;100.00;97941.13;4954547;28;20512;-84
2022/05/11 02:13:50;;;;;;;;;;;;;;;19.88;100.00;97939.66;4953845;28;20166;-84
2022/05/11 02:16:17;;;;;;;;;;;;;;;19.35;100.00;97945.41;4932612;29;19937;-84
2022/05/11 02:18:44;;;;;;;;;;;;;;;19.30;100.00;97940.97;4931363;28;19933;-84
2022/05/11 02:21:10;;;;;;;;;;;;;;;19.48;100.00;97943.69;4961178;28;19932;-83
2022/05/11 02:23:37;;;;;;;;;;;;;;;19.64;100.00;97945.59;4951453;28;20018;-85
2022/05/11 02:26:04;;;;;;;;;;;;;;;19.00;100.00;97960.81;4941794;28;19954;-83
2022/05/11 02:28:30;;;;;;;;;;;;;;;19.05;100.00;97946.34;4939252;28;19933;-85
2022/05/11 02:30:57;;;;;;;;;;;;;;;19.86;100.00;97953.53;4955365;28;20040;-83
2022/05/11 02:33:25;;;;;;;;;;;;;;;19.54;100.00;97953.25;4939914;28;19941;-83
2022/05/11 02:35:51;;;;;;;;;;;;;;;19.31;100.00;97961.50;4950706;28;19936;-84
2022/05/11 02:38:19;;;;;;;;;;;;;;;19.56;100.00;97959.94;4953293;28;19933;-84
2022/05/11 02:40:48;;;;;;;;;;;;;;;20.20;100.00;97958.06;4951287;28;19942;-83
2022/05/11 02:43:15;;;;;;;;;;;;;;;19.27;100.00;97957.03;4943151;28;20008;-84
2022/05/11 02:45:42;;;;;;;;;;;;;;;19.10;100.00;97962.44;4944673;28;20159;-83
2022/05/11 02:48:09;;;;;;;;;;;;;;;19.69;100.00;97960.88;4926103;28;20390;-83
2022/05/11 02:50:38;;;;;;;;;;;;;;;20.17;100.00;97966.84;4938843;28;19936;-84
2022/05/11 02:53:07;;;;;;;;;;;;;;;20.28;100.00;97968.13;4958839;28;19926;-83
2022/05/11 02:55:34;;;;;;;;;;;;;;;20.33;100.00;97970.63;4937970;28;20404;-82
2022/05/11 02:58:01;;;;;;;;;;;;;;;20.44;100.00;97969.19;4953076;28;19926;-84
2022/05/11 03:00:27;;;;;;;;;;;;;;;20.53;100.00;97968.34;4949873;28;19935;-83
2022/05/11 03:02:53;;;;;;;;;;;;;;;20.33;100.00;97967.94;4960848;28;20527;-83
2022/05/11 03:05:20;;;;;;;;;;;;;;;19.90;100.00;97967.22;4961499;28;20025;-84
2022/05/11 03:07:47;;;;;;;;;;;;;;;20.03;100.00;97965.44;4930711;28;19930;-81
2022/05/11 03:10:14;;;;;;;;;;;;;;;19.62;100.00;97960.59;4973702;28;19926;-83
2022/05/11 03:12:40;;;;;;;;;;;;;;;20.05;100.00;97976.78;4953193;28;19926;-84
2022/05/11 03:15:07;;;;;;;;;;;;;;;19.75;100.00;97960.38;4945002;28;20377;-83
2022/05/11 03:17:36;;;;;;;;;;;;;;;19.54;100.00;97969.50;4953144;28;21377;-84
2022/05/11 03:20:02;;;;;;;;;;;;;;;19.84;100.00;97968.50;4943711;28;19949;-84
2022/05/11 03:22:29;;;;;;;;;;;;;;;20.16;100.00;97976.09;4954378;28;19930;-84
2022/05/11 03:24:56;;;;;;;;;;;;;;;19.92;100.00;97967.72;4953921;28;19931;-83
2022/05/11 03:27:23;;;;;;;;;;;;;;;20.03;100.00;97976.28;4954855;28;19931;-85
2022/05/11 03:29:51;;;;;;;;;;;;;;;20.21;100.00;97969.72;4956405;28;20013;-84
2022/05/11 03:35:16;;;;;;;;;;;;;;;19.92;100.00;97971.22;4907406;29;19989;-84
2022/05/11 03:37:43;;;;;;;;;;;;;;;20.21;100.00;97983.28;4910903;29;19934;-84
2022/05/11 03:40:12;;;;;;;;;;;;;;;19.31;100.00;97963.44;4933632;28;19934;-84
2022/05/11 03:42:39;;;;;;;;;;;;;;;19.04;100.00;97978.03;4943879;28;19934;-84
2022/05/11 03:45:07;;;;;;;;;;;;;;;19.67;100.00;97976.66;4944996;28;19927;-84
2022/05/11 03:47:33;;;;;;;;;;;;;;;19.85;100.00;97979.03;4962744;28;20456;-84
2022/05/11 03:49:59;;;;;;;;;;;;;;;19.39;100.00;97970.75;4950421;28;19927;-84
2022/05/11 03:52:26;;;;;;;;;;;;;;;19.75;100.00;97967.72;4949760;28;19930;-84
2022/05/11 03:54:52;;;;;;;;;;;;;;;19.18;100.00;97973.28;4943958;28;19931;-84
2022/05/11 03:57:21;;;;;;;;;;;;;;;19.73;100.00;97972.69;4929182;28;19938;-83
2022/05/11 03:59:47;;;;;;;;;;;;;;;19.13;100.00;97976.13;4943008;29;20083;-85
2022/05/11 04:02:14;;;;;;;;;;;;;;;19.09;100.00;97977.91;4959110;28;19937;-84
2022/05/11 04:04:40;;;;;;;;;;;;;;;18.64;100.00;97990.00;4951865;28;19992;-84
2022/05/11 04:07:09;;;;;;;;;;;;;;;19.29;100.00;97979.16;4956189;28;19934;-85
2022/05/11 04:09:35;;;;;;;;;;;;;;;19.62;100.00;97982.25;4949500;28;19937;-84
2022/05/11 04:12:02;;;;;;;;;;;;;;;19.73;100.00;97983.50;4962507;28;19926;-84
2022/05/11 04:14:30;;;;;;;;;;;;;;;19.89;100.00;97976.47;4944783;28;19926;-82
2022/05/11 04:16:59;;;;;;;;;;;;;;;18.67;100.00;97987.47;4942148;28;19942;-84
2022/05/11 04:19:25;;;;;;;;;;;;;;;18.10;100.00;97991.97;4948763;28;20504;-82
2022/05/11 04:21:51;;;;;;;;;;;;;;;18.19;100.00;97987.41;4952816;28;19937;-83
2022/05/11 04:24:18;;;;;;;;;;;;;;;18.62;100.00;97989.53;4961965;28;19930;-84
2022/05/11 04:26:44;;;;;;;;;;;;;;;18.94;100.00;97991.84;4956378;28;19926;-82
2022/05/11 04:29:10;;;;;;;;;;;;;;;18.80;100.00;97983.88;4933199;28;20574;-86
2022/05/11 04:31:38;;;;;;;;;;;;;;;18.45;100.00;97986.72;4945934;28;19933;-85
2022/05/11 04:34:04;;;;;;;;;;;;;;;18.58;100.00;97978.53;4950980;28;19933;-84
2022/05/11 04:36:32;;;;;;;;;;;;;;;18.57;100.00;97978.88;4938874;28;19926;-85
2022/05/11 04:38:58;;;;;;;;;;;;;;;18.37;100.00;97979.38;4961996;28;19949;-84
2022/05/11 04:41:26;;;;;;;;;;;;;;;18.17;100.00;97988.81;4948474;28;19940;-83
2022/05/11 04:43:52;;;;;;;;;;;;;;;18.23;100.00;97991.06;4950418;28;19927;-83
2022/05/11 04:46:19;;;;;;;;;;;;;;;18.25;100.00;97990.78;4960069;28;20024;-84
2022/05/11 04:48:46;;;;;;;;;;;;;;;18.46;100.00;97996.44;4946477;28;20021;-83
2022/05/11 04:51:13;;;;;;;;;;;;;;;18.24;100.00;98000.78;4958340;28;20341;-84
2022/05/11 04:53:39;;;;;;;;;;;;;;;17.98;100.00;98002.53;4939086;28;19937;-84
2022/05/11 04:56:06;;;;;;;;;;;;;;;17.82;100.00;98006.75;4949116;28;19949;-83
2022/05/11 04:58:32;;;;;;;;;;;;;;;17.64;100.00;98008.50;4960990;28;19926;-84
2022/05/11 05:00:59;;;;;;;;;;;;;;;17.27;100.00;98009.56;4959846;28;19941;-86
2022/05/11 05:03:25;;;;;;;;;;;;;;;17.22;100.00;98011.59;4943889;28;20017;-84
2022/05/11 05:05:53;;;;;;;;;;;;;;;17.08;100.00;98014.31;4962702;28;19932;-84
2022/05/11 05:08:19;;;;;;;;;;;;;;;17.21;100.00;98002.69;4931653;28;20362;-84
2022/05/11 05:10:46;;;;;;;;;;;;;;;17.04;100.00;98013.31;4945898;28;19927;-84
2022/05/11 05:13:13;;;;;;;;;;;;;;;16.89;100.00;98010.94;5026598;28;19952;-84
2022/05/11 05:15:42;;;;;;;;;;;;;;;17.05;100.00;98020.31;4960352;28;20131;-84
2022/05/11 05:18:09;;;;;;;;;;;;;;;17.11;100.00;98024.50;4957237;28;19926;-85
2022/05/11 05:20:38;;;;;;;;;;;;;;;16.98;100.00;98029.91;4938468;29;20009;-84
2022/05/11 05:23:06;;;;;;;;;;;;;;;16.82;100.00;98021.34;4953043;28;20339;-85
2022/05/11 05:25:32;;;;;;;;;;;;;;;16.95;100.00;98015.13;4926904;29;20144;-85
2022/05/11 05:31:04;;;;;;;;;;;;;;;17.05;100.00;98016.84;4930227;28;20302;-83
2022/05/11 05:33:30;;;;;;;;;;;;;;;17.32;100.00;98024.06;4947550;28;19983;-85
2022/05/11 05:35:56;;;;;;;;;;;;;;;17.35;100.00;98023.47;4947808;28;19935;-85
2022/05/11 05:38:24;;;;;;;;;;;;;;;17.27;100.00;98022.25;4931590;28;19926;-85
2022/05/11 05:40:50;;;;;;;;;;;;;;;17.75;100.00;98025.25;4948086;28;19960;-83
2022/05/11 05:43:16;;;;;;;;;;;;;;;18.05;100.00;98023.72;4950869;28;20013;-83
2022/05/11 05:45:47;;;;;;;;;;;;;;;18.17;100.00;98024.75;4953036;28;20411;-84
2022/05/11 05:48:13;;;;;;;;;;;;;;;18.12;100.00;98019.50;4933438;28;19926;-84
2022/05/11 05:50:39;;;;;;;;;;;;;;;17.87;100.00;98025.50;4945234;28;19937;-84
2022/05/11 05:53:06;;;;;;;;;;;;;;;17.62;100.00;98028.81;4945631;28;19934;-83
2022/05/11 05:55:33;;;;;;;;;;;;;;;17.71;100.00;98030.47;4951092;28;19926;-84
2022/05/11 05:58:00;;;;;;;;;;;;;;;17.65;100.00;98030.91;5038608;28;19930;-84
2022/05/11 06:00:27;;;;;;;;;;;;;;;17.70;100.00;98026.16;4944541;28;19937;-84
2022/05/11 06:02:54;;;;;;;;;;;;;;;17.98;100.00;98028.78;4931507;28;19930;-84
2022/05/11 06:05:21;;;;;;;;;;;;;;;18.41;100.00;98027.13;4959891;28;19926;-84
2022/05/11 06:07:47;;;;;;;;;;;;;;;18.61;100.00;98031.22;4943058;28;20269;-85
2022/05/11 06:10:13;;;;;;;;;;;;;;;18.79;100.00;98024.75;4948711;28;19926;-83
2022/05/11 06:12:41;;;;;;;;;;;;;;;19.13;100.00;98027.56;4957634;28;20013;-84
2022/05/11 06:15:08;;;;;;;;;;;;;;;19.15;100.00;98028.06;4933545;28;19960;-82
2022/05/11 06:17:35;;;;;;;;;;;;;;;18.82;100.00;98034.94;4954578;28;20079;-84
2022/05/11 06:20:01;;;;;;;;;;;;;;;18.53;100.00;98038.19;4943467;28;19937;-82
2022/05/11 06:22:28;;;;;;;;;;;;;;;18.70;100.00;98032.03;4957723;28;19933;-84
2022/05/11 06:24:54;;;;;;;;;;;;;;;18.91;100.00;98035.78;4925562;28;19934;-83
2022/05/11 06:27:23;;;;;;;;;;;;;;;18.92;100.00;98023.03;4959253;28;20236;-84
2022/05/11 06:29:53;;;;;;;;;;;;;;;19.09;100.00;98036.66;4944468;28;19938;-84
2022/05/11 06:32:19;;;;;;;;;;;;;;;19.28;100.00;98029.81;4945571;28;19958;-83
2022/05/11 06:34:45;;;;;;;;;;;;;;;19.48;100.00;98024.94;4949582;28;19941;-83
2022/05/11 06:37:12;;;;;;;;;;;;;;;19.62;100.00;98020.97;5031654;28;19952;-83
2022/05/11 06:39:38;;;;;;;;;;;;;;;19.81;100.00;98024.16;4933187;28;19938;-83
2022/05/11 06:42:06;;;;;;;;;;;;;;;19.37;100.00;98030.63;4955801;28;19926;-83
2022/05/11 06:44:32;;;;;;;;;;;;;;;18.94;100.00;98023.56;4938261;28;19964;-84
2022/05/11 06:47:00;;;;;;;;;;;;;;;18.78;100.00;98023.97;4948041;28;20305;-83
2022/05/11 06:49:26;;;;;;;;;;;;;;;18.81;100.00;98031.47;4961364;28;19927;-83
2022/05/11 06:51:53;;;;;;;;;;;;;;;19.06;100.00;98021.03;4949252;28;19930;-84
2022/05/11 06:59:48;;;;;;;;;;;;;;;19.31;100.00;98015.66;4950688;28;19933;-84
2022/05/11 07:02:16;;;;;;;;;;;;;;;19.13;100.00;98014.03;4956399;28;19945;-83
2022/05/11 07:04:48;;;;;;;;;;;;;;;19.11;100.00;98018.97;4953777;28;19961;-83
2022/05/11 07:07:15;;;;;;;;;;;;;;;19.66;100.00;98010.28;4939236;28;20027;-83
2022/05/11 07:09:41;;;;;;;;;;;;;;;20.13;100.00;98008.47;4950752;28;19926;-83
2022/05/11 07:12:21;;;;;;;;;;;;;;;19.89;100.00;98009.81;4955578;28;19931;-83
2022/05/11 07:14:51;;;;;;;;;;;;;;;20.03;100.00;98008.81;5012544;28;20393;-82
2022/05/11 07:17:26;;;;;;;;;;;;;;;20.19;100.00;98002.56;4958840;28;19932;-84
2022/05/11 07:19:53;;;;;;;;;;;;;;;20.14;100.00;98004.66;4946135;28;19926;-84
2022/05/11 07:22:20;;;;;;;;;;;;;;;19.75;100.00;98000.22;4951409;28;20568;-83
2022/05/11 07:24:46;;;;;;;;;;;;;;;20.98;100.00;98001.97;4939834;28;19926;-83
2022/05/11 07:27:14;;;;;;;;;;;;;;;20.95;100.00;98003.41;4955750;28;20320;-83
2022/05/11 07:29:41;;;;;;;;;;;;;;;21.21;100.00;97989.72;4952399;28;19926;-83
2022/05/11 07:32:09;;;;;;;;;;;;;;;21.66;100.00;97994.50;4963312;28;19933;-84
2022/05/11 07:34:36;;;;;;;;;;;;;;;21.56;100.00;97989.44;4946261;28;20305;-84
2022/05/11 07:37:03;;;;;;;;;;;;;;;21.31;100.00;97989.31;4947828;28;20191;-83
2022/05/11 07:39:29;;;;;;;;;;;;;;;20.93;100.00;97991.28;4927266;28;20305;-82
2022/05/11 07:41:56;;;;;;;;;;;;;;;20.84;100.00;97996.75;4927436;28;20173;-83
2022/05/11 07:44:22;;;;;;;;;;;;;;;20.61;100.00;97991.94;4962153;28;19934;-84
2022/05/11 07:46:49;;;;;;;;;;;;;;;20.43;100.00;97997.41;4955130;28;20166;-83
2022/05/11 07:49:16;;;;;;;;;;;;;;;20.49;100.00;97986.41;4961049;28;19936;-83
2022/05/11 07:51:45;;;;;;;;;;;;;;;20.55;100.00;97987.81;4938706;28;20145;-83
2022/05/11 07:54:12;;;;;;;;;;;;;;;20.78;100.00;97992.66;4954984;28;20628;-83
2022/05/11 08:02:22;;;;;;;;;;;;;;;21.06;100.00;97975.88;4903880;29;20188;-85
2022/05/11 08:04:48;;;;;;;;;;;;;;;21.28;100.00;97987.28;4926220;28;19935;-82
2022/05/11 08:07:16;;;;;;;;;;;;;;;21.30;100.00;97986.94;4942231;28;19984;-82
2022/05/11 08:09:42;;;;;;;;;;;;;;;21.53;100.00;97982.78;4963623;28;19927;-84
2022/05/11 08:12:09;;;;;;;;;;;;;;;21.90;100.00;97975.59;4952951;28;19932;-84
2022/05/11 08:14:36;;;;;;;;;;;;;;;21.80;100.00;97984.91;4946788;28;19933;-84
2022/05/11 08:17:02;;;;;;;;;;;;;;;21.72;100.00;97974.13;4954202;28;19927;-84
2022/05/11 08:19:29;;;;;;;;;;;;;;;21.75;100.00;97976.97;4959673;28;20096;-83
2022/05/11 08:21:56;;;;;;;;;;;;;;;22.37;100.00;97970.59;4944400;29;19934;-84
2022/05/11 08:24:24;;;;;;;;;;;;;;;22.24;100.00;97983.41;4961439;28;19926;-84
2022/05/11 08:26:51;;;;;;;;;;;;;;;22.63;100.00;97979.25;4955110;28;19930;-83
2022/05/11 08:34:42;;;;;;;;;;;;;;;22.38;100.00;97974.91;4957802;28;20031;-83
2022/05/11 08:37:09;;;;;;;;;;;;;;;22.93;100.00;97968.97;4943245;29;19926;-83
2022/05/11 08:39:38;;;;;;;;;;;;;;;23.16;100.00;97972.78;4946419;28;19927;-84
2022/05/11 08:42:04;;;;;;;;;;;;;;;23.05;100.00;97963.50;4949159;28;19926;-84
2022/05/11 08:44:33;;;;;;;;;;;;;;;23.13;99.13;97971.53;4950977;28;19931;-83
2022/05/11 08:47:03;;;;;;;;;;;;;;;23.27;97.83;97964.94;5004637;28;20090;-82
2022/05/11 08:49:42;;;;;;;;;;;;;;;23.41;97.16;97971.63;4944036;29;20374;-84
2022/05/11 08:52:11;;;;;;;;;;;;;;;23.78;96.42;97960.59;4948103;28;19934;-82
2022/05/11 08:54:46;;;;;;;;;;;;;;;24.01;94.14;97950.72;4943174;29;19970;-82
2022/05/11 08:57:15;;;;;;;;;;;;;;;24.12;92.57;97949.06;4949222;28;20530;-83
2022/05/11 08:59:41;;;;;;;;;;;;;;;24.29;90.87;97948.75;5027414;28;19953;-83
2022/05/11 09:02:13;;;;;;;;;;;;;;;24.10;90.87;97948.59;4954431;28;19926;-84
2022/05/11 09:04:43;;;;;;;;;;;;;;;24.36;91.09;97957.09;4946680;28;20030;-83
2022/05/11 09:07:10;;;;;;;;;;;;;;;24.46;90.93;97953.84;4938980;29;19932;-85
2022/05/11 09:09:37;;;;;;;;;;;;;;;24.37;89.89;97950.50;4950212;28;20690;-85
2022/05/11 09:12:06;;;;;;;;;;;;;;;24.75;87.76;97949.88;4948950;28;19933;-82
2022/05/11 09:14:34;;;;;;;;;;;;;;;24.84;86.91;97955.19;4953831;28;20600;-84
2022/05/11 09:17:01;;;;;;;;;;;;;;;24.90;86.38;97945.56;4927865;29;19933;-83
2022/05/11 09:19:29;;;;;;;;;;;;;;;24.85;86.86;97940.38;4956741;28;20208;-88
2022/05/11 09:21:57;;;;;;;;;;;;;;;25.05;84.96;97942.00;4957180;28;20104;-84
2022/05/11 09:24:28;;;;;;;;;;;;;;;25.24;81.60;97942.84;4958632;28;20456;-83
2022/05/11 09:27:02;;;;;;;;;;;;;;;25.23;80.84;97951.38;4949408;28;20090;-83
2022/05/11 09:29:35;;;;;;;;;;;;;;;25.17;80.53;97941.88;4943461;29;19926;-84
2022/05/11 09:32:19;;;;;;;;;;;;;;;25.26;80.02;97945.19;4945574;28;20019;-84
2022/05/11 09:34:45;;;;;;;;;;;;;;;25.25;78.88;97938.16;4938814;28;19941;-84
2022/05/11 09:37:22;;;;;;;;;;;;;;;25.46;76.27;97938.63;4962434;28;19930;-85
2022/05/11 09:39:51;;;;;;;;;;;;;;;25.42;76.11;97937.75;4931302;28;19930;-85
2022/05/11 09:42:20;;;;;;;;;;;;;;;25.49;74.25;97935.19;4947539;28;19930;-83
2022/05/11 09:44:49;;;;;;;;;;;;;;;25.58;73.10;97929.50;4963354;28;20026;-83
2022/05/11 09:47:27;;;;;;;;;;;;;;;25.54;72.94;97929.41;4945416;28;20394;-82
2022/05/11 09:49:53;;;;;;;;;;;;;;;25.61;70.65;97932.31;4957171;28;19934;-83
2022/05/11 09:52:31;;;;;;;;;;;;;;;25.82;70.11;97929.19;4951529;28;19946;-82
2022/05/11 09:54:58;;;;;;;;;;;;;;;25.85;69.85;97922.97;4958350;28;20409;-82
2022/05/11 09:57:27;;;;;;;;;;;;;;;25.77;70.25;97924.03;4948304;28;20027;-84
2022/05/11 10:00:15;;;;;;;;;;;;;;;25.77;68.43;97922.06;4930489;28;19960;-82
2022/05/11 10:02:44;;;;;;;;;;;;;;;25.84;66.56;97924.16;4937388;28;19935;-83
2022/05/11 10:05:12;;;;;;;;;;;;;;;25.94;64.63;97920.00;4942933;29;20398;-82
2022/05/11 10:07:44;;;;;;;;;;;;;;;25.98;63.21;97912.66;4949083;28;20750;-83
2022/05/11 10:10:13;;;;;;;;;;;;;;;25.85;63.90;97922.19;4953010;28;19949;-82
2022/05/11 10:12:42;;;;;;;;;;;;;;;26.03;63.11;97912.34;4947036;28;19930;-84
2022/05/11 10:23:43;;;;;;;;;;;;;;;26.11;61.11;97905.88;4924175;28;20034;-84
2022/05/11 10:26:14;;;;;;;;;;;;;;;26.22;59.97;97904.94;4934486;28;20504;-83
2022/05/11 10:28:45;;;;;;;;;;;;;;;26.21;60.39;97902.56;4938534;28;20454;-83
2022/05/11 10:31:18;;;;;;;;;;;;;;;26.21;60.03;97905.31;4944714;28;19927;-84
2022/05/11 10:33:48;;;;;;;;;;;;;;;26.25;59.59;97908.88;4929516;28;20318;-83
2022/05/11 10:36:19;;;;;;;;;;;;;;;26.27;58.00;97896.41;4959848;28;20423;-84
2022/05/11 10:38:51;;;;;;;;;;;;;;;26.29;59.50;97890.56;4955180;28;19970;-83
2022/05/11 10:41:23;;;;;;;;;;;;;;;26.18;59.88;97889.63;4950941;28;19958;-82
2022/05/11 10:44:01;;;;;;;;;;;;;;;26.39;60.16;97881.75;4960126;28;19926;-83
2022/05/11 10:46:33;;;;;;;;;;;;;;;26.28;59.93;97883.50;4960978;28;19936;-83
2022/05/11 10:49:06;;;;;;;;;;;;;;;26.23;60.92;97875.59;4960802;28;20227;-84
2022/05/11 10:51:38;;;;;;;;;;;;;;;26.30;60.34;97876.50;4943065;28;19934;-85
2022/05/11 10:54:11;;;;;;;;;;;;;;;26.50;59.15;97871.75;4949177;28;20407;-84
2022/05/11 10:56:45;;;;;;;;;;;;;;;26.40;59.60;97872.34;4957644;28;19973;-84
2022/05/11 10:59:25;;;;;;;;;;;;;;;26.34;60.53;97862.88;4949101;28;19927;-83
2022/05/11 11:02:01;;;;;;;;;;;;;;;26.44;59.06;97865.00;4942632;28;20034;-85
2022/05/11 11:04:45;;;;;;;;;;;;;;;26.57;59.28;97863.63;4954800;28;20225;-84
2022/05/11 11:07:21;;;;;;;;;;;;;;;26.42;59.09;97863.78;4942010;28;19933;-84
2022/05/11 11:10:03;;;;;;;;;;;;;;;26.54;58.80;97855.34;4928007;29;20041;-84
2022/05/11 11:12:39;;;;;;;;;;;;;;;26.60;56.53;97843.72;4946220;28;20349;-83
2022/05/11 11:15:08;;;;;;;;;;;;;;;26.56;55.64;97847.56;4933242;28;19937;-83
2022/05/11 11:17:35;;;;;;;;;;;;;;;26.52;56.28;97847.50;4958618;28;20606;-84
2022/05/11 11:20:04;;;;;;;;;;;;;;;26.62;53.24;97840.59;4946571;28;19930;-84
2022/05/11 11:22:58;;;;;;;;;;;;;;;26.58;52.70;97835.09;4955335;28;19930;-84
2022/05/11 11:25:24;;;;;;;;;;;;;;;26.64;53.32;97844.56;4944407;28;20137;-84
2022/05/11 11:28:01;;;;;;;;;;;;;;;26.52;53.21;97839.28;4926658;28;19964;-84
2022/05/11 11:30:27;;;;;;;;;;;;;;;26.53;53.38;97824.44;4928181;28;19930;-84
2022/05/11 11:33:08;;;;;;;;;;;;;;;26.56;51.95;97823.69;4950288;28;19926;-83
2022/05/11 11:35:41;;;;;;;;;;;;;;;26.57;51.71;97822.56;4949798;28;19926;-83
2022/05/11 11:38:07;;;;;;;;;;;;;;;26.53;51.66;97818.97;5036174;28;19930;-84
2022/05/11 11:40:34;;;;;;;;;;;;;;;26.50;51.94;97816.97;4938415;29;19933;-84
2022/05/11 11:43:38;;;;;;;;;;;;;;;26.56;51.46;97815.47;4954214;28;20049;-86
2022/05/11 11:46:00;;;;;;;;;;;;;;;26.54;51.84;97817.81;4954540;28;19957;-84
2022/05/11 11:48:29;;;;;;;;;;;;;;;26.71;49.37;97816.47;4930602;28;19927;-84
2022/05/11 11:50:59;;;;;;;;;;;;;;;26.53;51.36;97807.22;4947658;28;19930;-85
2022/05/11 11:53:29;;;;;;;;;;;;;;;26.49;50.95;97812.63;4941786;28;19930;-83
2022/05/11 11:55:55;;;;;;;;;;;;;;;26.60;49.97;97807.31;4932189;28;19961;-84
2022/05/11 11:58:26;;;;;;;;;;;;;;;26.65;49.68;97807.00;4945450;28;19931;-83
2022/05/11 12:01:04;;;;;;;;;;;;;;;26.47;50.99;97798.53;4947289;28;19931;-84
2022/05/11 12:03:33;;;;;;;;;;;;;;;26.68;49.82;97798.81;4958223;28;20409;-83
2022/05/11 12:17:00;;;;;;;;;;;;;;;26.79;47.71;97774.31;4950763;28;19972;-84
2022/05/11 12:19:28;;;;;;;;;;;;;;;26.54;48.86;97778.66;4947726;28;20712;-83
2022/05/11 12:21:58;;;;;;;;;;;;;;;26.52;48.65;97757.13;4955446;28;19937;-85
2022/05/11 12:24:28;;;;;;;;;;;;;;;26.44;49.04;97763.66;4946148;28;19930;-85
2022/05/11 12:26:56;;;;;;;;;;;;;;;26.71;47.50;97773.44;4944566;28;20082;-84
2022/05/11 12:32:07;;;;;;;;;;;;;;;26.63;48.85;97769.03;4949957;28;20398;-84
2022/05/11 12:34:39;;;;;;;;;;;;;;;26.68;49.15;97755.00;4945631;28;19931;-84
2022/05/11 12:37:20;;;;;;;;;;;;;;;26.40;49.84;97751.09;4957577;28;20111;-84
2022/05/11 12:39:54;;;;;;;;;;;;;;;26.67;48.20;97747.97;4949760;28;19926;-83
2022/05/11 12:42:26;;;;;;;;;;;;;;;26.52;49.09;97759.84;4952309;28;19926;-86
2022/05/11 12:44:55;;;;;;;;;;;;;;;26.39;49.81;97755.78;4955507;28;19930;-88
2022/05/11 12:47:21;;;;;;;;;;;;;;;26.60;48.69;97742.38;4960544;28;19930;-84
2022/05/11 12:49:48;;;;;;;;;;;;;;;26.78;48.14;97746.13;4953161;28;19932;-83
2022/05/11 12:52:17;;;;;;;;;;;;;;;26.89;47.54;97742.75;4953429;28;19932;-85
2022/05/11 12:54:55;;;;;;;;;;;;;;;27.05;46.93;97746.09;4961072;28;19927;-84
2022/05/11 12:57:21;;;;;;;;;;;;;;;26.99;48.12;97734.66;4949665;28;19933;-84
2022/05/11 12:59:51;;;;;;;;;;;;;;;27.09;48.01;97741.41;4943163;28;19926;-86
2022/05/11 13:02:18;;;;;;;;;;;;;;;27.21;45.09;97721.97;4945500;28;20005;-85
2022/05/11 13:04:50;;;;;;;;;;;;;;;27.04;47.29;97728.84;4945856;28;19931;-83
2022/05/11 13:07:19;;;;;;;;;;;;;;;27.08;46.83;97731.63;4956498;28;20013;-83
2022/05/11 13:09:47;;;;;;;;;;;;;;;26.58;49.34;97725.53;4934220;28;19988;-84
2022/05/11 13:12:15;;;;;;;;;;;;;;;26.72;48.18;97712.00;4952106;28;19937;-85
2022/05/11 13:14:45;;;;;;;;;;;;;;;26.67;47.94;97717.81;4953496;28;20054;-84
2022/05/11 13:17:20;;;;;;;;;;;;;;;26.63;48.28;97703.28;4941177;28;19934;-83
2022/05/11 13:19:52;;;;;;;;;;;;;;;26.86;47.57;97713.38;4953062;28;20176;-84
2022/05/11 13:22:24;;;;;;;;;;;;;;;27.11;45.07;97706.97;4944778;28;19938;-84
2022/05/11 13:24:52;;;;;;;;;;;;;;;27.17;45.36;97705.47;4961547;28;19926;-84
2022/05/11 13:27:26;;;;;;;;;;;;;;;27.13;47.56;97712.09;4944635;28;19926;-83
2022/05/11 13:30:02;;;;;;;;;;;;;;;27.02;48.31;97702.97;4951877;28;20000;-83
2022/05/11 13:32:28;;;;;;;;;;;;;;;27.37;46.68;97695.09;4956366;28;19933;-85
2022/05/11 13:35:14;;;;;;;;;;;;;;;27.29;46.96;97691.50;4948734;28;19934;-83